Time;durP1;ratioP1;P1;durP2;ratioP2;P2;SDS_P1;SDS_P2;PMS_P1;PMS_P2;Temp;Humidity;BMP_temperature;BMP_pressure;BME280_temperature;BME280_humidity;BME280_pressure;Samples;Min_cycle;Max_cycle;Signal;HPM_P1;HPM_P2
2021/10/01 00:02:02;;;;;;;;;;;8.60;1.00;;;;;;5047745;28;19917;-60
2021/10/01 00:04:28;;;;;;;;;;;8.60;1.00;;;;;;5048537;28;19947;-62
2021/10/01 00:06:53;;;;;;;;;;;8.50;1.00;;;;;;5049975;28;19913;-62
2021/10/01 00:09:19;;;;;;;;;;;8.50;1.00;;;;;;5049426;28;19988;-62
2021/10/01 00:11:54;;;;;;;;;;;8.50;99.90;;;;;;5048128;28;19963;-62
2021/10/01 00:14:20;;;;;;;;;;;8.40;99.90;;;;;;5048628;28;20381;-60
2021/10/01 00:16:46;;;;;;;;;;;8.40;1.00;;;;;;5048427;28;19916;-60
2021/10/01 00:19:12;;;;;;;;;;;8.40;1.00;;;;;;5048859;28;19909;-61
2021/10/01 00:21:38;;;;;;;;;;;8.30;1.00;;;;;;5047856;28;19912;-59
2021/10/01 00:24:07;;;;;;;;;;;8.30;1.00;;;;;;5045501;28;20472;-61
2021/10/01 00:26:33;;;;;;;;;;;8.30;1.00;;;;;;5028703;28;20330;-59
2021/10/01 00:28:58;;;;;;;;;;;8.30;99.90;;;;;;5044192;28;19913;-59
2021/10/01 00:31:24;;;;;;;;;;;8.30;99.90;;;;;;5043949;28;20438;-60
2021/10/01 00:33:49;;;;;;;;;;;8.20;99.90;;;;;;5047688;28;19924;-59
2021/10/01 00:36:14;;;;;;;;;;;8.20;99.90;;;;;;5047642;28;19916;-59
2021/10/01 00:38:40;;;;;;;;;;;8.20;1.00;;;;;;5048468;28;19959;-60
2021/10/01 00:41:05;;;;;;;;;;;8.20;1.00;;;;;;5048453;28;19915;-63
2021/10/01 00:43:31;;;;;;;;;;;8.20;1.00;;;;;;5047084;28;19913;-59
2021/10/01 00:45:56;;;;;;;;;;;8.10;1.00;;;;;;5047687;28;20023;-61
2021/10/01 00:48:22;;;;;;;;;;;8.10;1.00;;;;;;5048319;28;19909;-64
2021/10/01 00:50:47;;;;;;;;;;;8.10;1.00;;;;;;5048040;28;19954;-59
2021/10/01 00:53:13;;;;;;;;;;;8.10;1.00;;;;;;5047605;28;19913;-61
2021/10/01 00:55:39;;;;;;;;;;;8.10;1.00;;;;;;5048354;28;19913;-60
2021/10/01 00:58:04;;;;;;;;;;;8.10;1.00;;;;;;5047962;28;19915;-61
2021/10/01 01:00:30;;;;;;;;;;;8.10;1.00;;;;;;5047572;28;19952;-58
2021/10/01 01:02:57;;;;;;;;;;;8.10;1.00;;;;;;5047237;28;20054;-60
2021/10/01 01:05:28;;;;;;;;;;;8.00;99.90;;;;;;5047866;28;19909;-59
2021/10/01 01:07:56;;;;;;;;;;;8.00;1.00;;;;;;5048658;28;19909;-59
2021/10/01 01:10:34;;;;;;;;;;;8.00;1.00;;;;;;5048048;28;19920;-60
2021/10/01 01:13:05;;;;;;;;;;;8.00;1.00;;;;;;5046992;28;19999;-60
2021/10/01 01:15:32;;;;;;;;;;;8.00;1.00;;;;;;5047610;28;20292;-61
2021/10/01 01:18:06;;;;;;;;;;;7.90;1.00;;;;;;5048551;28;19950;-58
2021/10/01 01:20:38;;;;;;;;;;;7.90;1.00;;;;;;5047547;28;19924;-59
2021/10/01 01:23:18;;;;;;;;;;;7.90;1.00;;;;;;5047353;28;20032;-60
2021/10/01 01:26:03;;;;;;;;;;;7.90;1.00;;;;;;5032335;28;20329;-59
2021/10/01 01:28:31;;;;;;;;;;;7.90;1.00;;;;;;5042902;28;20406;-57
2021/10/01 01:31:01;;;;;;;;;;;7.90;24.60;;;;;;5040061;28;20579;-59
2021/10/01 01:33:28;;;;;;;;;;;7.90;1.00;;;;;;5051290;28;19932;-57
2021/10/01 01:35:56;;;;;;;;;;;7.80;1.00;;;;;;5052049;28;19912;-61
2021/10/01 01:38:26;;;;;;;;;;;7.80;97.20;;;;;;5051165;28;19988;-60
2021/10/01 01:40:54;;;;;;;;;;;7.70;99.90;;;;;;5051372;28;19912;-59
2021/10/01 01:43:20;;;;;;;;;;;7.70;99.90;;;;;;5050125;28;19920;-59
2021/10/01 01:45:46;;;;;;;;;;;7.70;99.90;;;;;;5050392;28;20026;-61
2021/10/01 01:48:12;;;;;;;;;;;7.70;99.90;;;;;;5051704;28;19920;-62
2021/10/01 01:50:38;;;;;;;;;;;7.70;1.00;;;;;;5049302;28;19957;-64
2021/10/01 01:53:04;;;;;;;;;;;7.70;99.90;;;;;;5030791;28;19913;-62
2021/10/01 01:55:30;;;;;;;;;;;7.70;99.90;;;;;;5031055;28;19924;-61
2021/10/01 01:57:57;;;;;;;;;;;7.70;1.00;;;;;;5031356;28;19953;-62
2021/10/01 02:00:23;;;;;;;;;;;7.60;1.00;;;;;;5030566;28;19913;-62
2021/10/01 02:02:49;;;;;;;;;;;7.60;1.00;;;;;;5030232;28;19920;-61
2021/10/01 02:05:16;;;;;;;;;;;7.50;1.00;;;;;;5030543;28;20346;-59
2021/10/01 02:07:41;;;;;;;;;;;7.50;55.90;;;;;;5031381;28;20271;-59
2021/10/01 02:10:07;;;;;;;;;;;7.50;99.90;;;;;;5035623;28;19929;-59
2021/10/01 02:12:33;;;;;;;;;;;7.50;65.80;;;;;;5049498;28;19952;-58
2021/10/01 02:15:00;;;;;;;;;;;7.50;99.90;;;;;;5049615;28;20009;-58
2021/10/01 02:17:27;;;;;;;;;;;7.50;99.90;;;;;;5051287;28;19986;-58
2021/10/01 02:19:55;;;;;;;;;;;7.40;99.90;;;;;;5050722;28;19978;-60
2021/10/01 02:22:21;;;;;;;;;;;7.40;99.90;;;;;;5049910;28;19917;-59
2021/10/01 02:24:46;;;;;;;;;;;7.40;99.90;;;;;;5042590;28;20275;-58
2021/10/01 02:27:38;;;;;;;;;;;7.40;99.90;;;;;;5030837;28;19913;-58
2021/10/01 02:30:11;;;;;;;;;;;7.40;99.90;;;;;;5043597;28;19913;-59
2021/10/01 02:32:38;;;;;;;;;;;7.40;99.90;;;;;;5049914;28;20007;-56
2021/10/01 02:35:05;;;;;;;;;;;7.30;1.00;;;;;;5049915;28;19912;-59
2021/10/01 02:37:31;;;;;;;;;;;7.30;1.00;;;;;;5050878;28;19908;-61
2021/10/01 02:39:57;;;;;;;;;;;7.30;1.00;;;;;;5050317;28;19917;-60
2021/10/01 02:42:23;;;;;;;;;;;7.30;1.00;;;;;;5049214;28;19917;-56
2021/10/01 02:44:49;;;;;;;;;;;7.30;1.00;;;;;;5048311;28;19974;-58
2021/10/01 02:47:15;;;;;;;;;;;7.20;1.00;;;;;;5050734;28;19956;-58
2021/10/01 02:49:41;;;;;;;;;;;7.20;1.00;;;;;;5049593;28;19982;-62
2021/10/01 02:52:09;;;;;;;;;;;7.20;1.00;;;;;;5049412;28;19928;-60
2021/10/01 02:55:10;;;;;;;;;;;7.20;1.00;;;;;;5040981;28;20273;-59
2021/10/01 02:57:51;;;;;;;;;;;7.20;1.00;;;;;;5007163;28;20369;-60
2021/10/01 03:00:16;;;;;;;;;;;7.10;1.00;;;;;;5027192;28;19913;-57
2021/10/01 03:02:43;;;;;;;;;;;7.10;1.00;;;;;;5029419;28;19975;-59
2021/10/01 03:05:10;;;;;;;;;;;7.10;1.00;;;;;;5029601;28;19979;-60
2021/10/01 03:07:35;;;;;;;;;;;7.10;1.00;;;;;;5030623;28;19910;-58
2021/10/01 03:10:03;;;;;;;;;;;7.10;1.00;;;;;;5032056;28;19970;-58
2021/10/01 03:12:28;;;;;;;;;;;7.20;1.00;;;;;;5049096;28;19912;-60
2021/10/01 03:14:54;;;;;;;;;;;7.20;1.00;;;;;;5048979;28;20034;-60
2021/10/01 03:17:20;;;;;;;;;;;7.20;1.00;;;;;;5049903;28;20326;-58
2021/10/01 03:19:46;;;;;;;;;;;7.10;1.00;;;;;;5049143;28;19909;-59
2021/10/01 03:22:11;;;;;;;;;;;7.20;1.00;;;;;;5048983;28;19916;-60
2021/10/01 03:24:39;;;;;;;;;;;7.20;1.00;;;;;;5043315;28;20027;-61
2021/10/01 03:27:05;;;;;;;;;;;7.10;1.00;;;;;;5029534;28;19909;-60
2021/10/01 03:29:30;;;;;;;;;;;7.20;1.00;;;;;;5039412;28;19913;-62
2021/10/01 03:31:56;;;;;;;;;;;7.20;1.00;;;;;;5048631;28;20367;-59
2021/10/01 03:34:22;;;;;;;;;;;7.20;1.00;;;;;;5049963;28;20397;-57
2021/10/01 03:36:47;;;;;;;;;;;7.20;1.00;;;;;;5048955;28;20273;-60
2021/10/01 03:39:13;;;;;;;;;;;7.10;1.00;;;;;;5049235;28;19909;-62
2021/10/01 03:41:38;;;;;;;;;;;7.10;1.00;;;;;;5048849;28;19917;-63
2021/10/01 03:44:04;;;;;;;;;;;7.00;1.00;;;;;;5048671;28;19957;-58
2021/10/01 03:46:30;;;;;;;;;;;7.00;1.00;;;;;;5047857;28;19908;-56
2021/10/01 03:48:56;;;;;;;;;;;7.00;1.00;;;;;;5049190;28;19909;-60
2021/10/01 03:51:23;;;;;;;;;;;7.00;1.00;;;;;;5048107;28;20006;-62
2021/10/01 03:53:49;;;;;;;;;;;7.10;1.00;;;;;;5048009;28;19912;-62
2021/10/01 03:56:17;;;;;;;;;;;7.00;1.00;;;;;;5047746;28;19909;-59
2021/10/01 03:58:44;;;;;;;;;;;7.00;1.00;;;;;;5048880;28;19952;-61
2021/10/01 04:01:09;;;;;;;;;;;7.00;1.00;;;;;;5047991;28;19913;-63
2021/10/01 04:03:35;;;;;;;;;;;7.00;1.00;;;;;;5047646;28;20337;-60
2021/10/01 04:06:00;;;;;;;;;;;7.00;1.00;;;;;;5047938;28;19909;-60
2021/10/01 04:08:26;;;;;;;;;;;7.00;1.00;;;;;;5048542;28;19924;-59
2021/10/01 04:10:51;;;;;;;;;;;7.00;1.00;;;;;;5048633;28;19920;-61
2021/10/01 04:13:17;;;;;;;;;;;7.00;1.00;;;;;;5047647;28;20381;-65
2021/10/01 04:15:43;;;;;;;;;;;7.00;1.00;;;;;;5048128;28;20032;-58
2021/10/01 04:18:08;;;;;;;;;;;7.00;1.00;;;;;;5048614;28;19919;-59
2021/10/01 04:20:36;;;;;;;;;;;7.00;1.00;;;;;;5048826;28;19954;-62
2021/10/01 04:23:01;;;;;;;;;;;6.90;11.60;;;;;;5047730;28;20282;-60
2021/10/01 04:25:27;;;;;;;;;;;6.90;77.20;;;;;;5034688;28;19921;-59
2021/10/01 04:27:52;;;;;;;;;;;6.90;95.90;;;;;;5038816;28;19909;-58
2021/10/01 04:30:18;;;;;;;;;;;6.90;18.70;;;;;;5033961;28;19913;-60
2021/10/01 04:32:47;;;;;;;;;;;6.90;5.00;;;;;;5033800;28;19909;-60
2021/10/01 04:35:12;;;;;;;;;;;6.90;1.00;;;;;;5049232;28;19967;-63
2021/10/01 04:37:38;;;;;;;;;;;6.90;1.00;;;;;;5051920;28;19924;-63
2021/10/01 04:40:04;;;;;;;;;;;6.90;1.00;;;;;;5060317;28;19917;-60
2021/10/01 04:42:30;;;;;;;;;;;6.90;1.00;;;;;;5049576;28;20316;-60
2021/10/01 04:44:55;;;;;;;;;;;6.90;9.90;;;;;;5050315;28;19916;-61
2021/10/01 04:47:21;;;;;;;;;;;6.80;32.50;;;;;;5053183;28;19994;-63
2021/10/01 04:49:46;;;;;;;;;;;6.80;78.20;;;;;;5055553;28;19913;-62
2021/10/01 04:52:12;;;;;;;;;;;6.80;99.90;;;;;;5053408;28;20355;-59
2021/10/01 04:54:37;;;;;;;;;;;6.80;99.90;;;;;;5060530;28;20000;-59
2021/10/01 04:57:03;;;;;;;;;;;6.80;96.10;;;;;;5052571;28;19920;-60
2021/10/01 04:59:29;;;;;;;;;;;6.80;99.90;;;;;;5051362;28;20673;-63
2021/10/01 05:01:54;;;;;;;;;;;6.70;99.90;;;;;;5057772;28;20012;-59
2021/10/01 05:04:20;;;;;;;;;;;6.80;99.90;;;;;;5056621;28;20333;-59
2021/10/01 05:06:45;;;;;;;;;;;6.70;99.90;;;;;;5054338;28;19955;-61
2021/10/01 05:09:11;;;;;;;;;;;6.70;99.90;;;;;;5060914;28;19913;-64
2021/10/01 05:11:36;;;;;;;;;;;6.70;99.90;;;;;;5033126;28;19914;-62
2021/10/01 05:14:02;;;;;;;;;;;6.80;99.90;;;;;;5045547;28;20026;-62
2021/10/01 05:16:28;;;;;;;;;;;6.70;99.90;;;;;;5040765;28;19909;-64
2021/10/01 05:18:53;;;;;;;;;;;6.70;99.90;;;;;;5044173;28;19920;-64
2021/10/01 05:21:19;;;;;;;;;;;6.70;99.90;;;;;;5047464;28;19913;-58
2021/10/01 05:23:44;;;;;;;;;;;6.70;99.90;;;;;;5043283;28;19917;-61
2021/10/01 05:26:10;;;;;;;;;;;6.70;99.90;;;;;;5047743;28;19916;-63
2021/10/01 05:28:35;;;;;;;;;;;6.70;99.90;;;;;;5048047;28;20404;-62
2021/10/01 05:31:01;;;;;;;;;;;6.90;99.90;;;;;;5047853;28;20642;-62
2021/10/01 05:33:27;;;;;;;;;;;7.00;99.90;;;;;;5048401;28;19932;-62
2021/10/01 05:35:52;;;;;;;;;;;7.00;2.40;;;;;;5048198;28;20301;-62
2021/10/01 05:38:18;;;;;;;;;;;7.20;1.00;;;;;;5049322;28;19909;-62
2021/10/01 05:40:44;;;;;;;;;;;7.40;1.00;;;;;;5049479;28;19909;-63
2021/10/01 05:43:10;;;;;;;;;;;7.60;1.00;;;;;;5048123;28;20023;-63
2021/10/01 05:45:35;;;;;;;;;;;8.10;1.00;;;;;;5048925;28;20000;-62
2021/10/01 05:48:01;;;;;;;;;;;8.70;1.00;;;;;;5048930;28;19941;-62
2021/10/01 05:50:30;;;;;;;;;;;9.20;99.90;;;;;;5048375;28;19915;-62
2021/10/01 05:53:05;;;;;;;;;;;9.80;1.00;;;;;;5040857;28;19916;-62
2021/10/01 05:55:30;;;;;;;;;;;10.20;1.00;;;;;;5032658;28;19909;-63
2021/10/01 05:57:56;;;;;;;;;;;10.70;1.00;;;;;;5047760;28;19915;-63
2021/10/01 06:00:22;;;;;;;;;;;10.90;1.00;;;;;;5047569;28;20541;-61
2021/10/01 06:02:47;;;;;;;;;;;11.00;99.90;;;;;;5045996;28;19913;-60
2021/10/01 06:05:13;;;;;;;;;;;11.00;99.90;;;;;;5048383;28;20389;-61
2021/10/01 06:07:40;;;;;;;;;;;11.10;99.90;;;;;;5036198;28;20339;-62
2021/10/01 06:10:06;;;;;;;;;;;11.50;99.90;;;;;;5036174;28;19932;-62
2021/10/01 06:12:32;;;;;;;;;;;12.00;99.90;;;;;;5037820;28;19913;-62
2021/10/01 06:14:57;;;;;;;;;;;12.80;99.90;;;;;;5033350;28;20221;-62
2021/10/01 06:17:23;;;;;;;;;;;13.70;99.90;;;;;;5037591;28;19920;-62
2021/10/01 06:19:49;;;;;;;;;;;14.80;99.90;;;;;;5035309;28;19921;-61
2021/10/01 06:22:14;;;;;;;;;;;16.00;99.90;;;;;;5034718;28;20502;-60
2021/10/01 06:24:40;;;;;;;;;;;16.90;99.90;;;;;;5040117;28;20344;-61
2021/10/01 06:27:07;;;;;;;;;;;17.70;99.90;;;;;;5039314;28;19932;-61
2021/10/01 06:29:32;;;;;;;;;;;18.30;99.90;;;;;;5043825;28;19934;-61
2021/10/01 06:31:58;;;;;;;;;;;18.70;99.90;;;;;;5046676;28;20008;-62
2021/10/01 06:34:23;;;;;;;;;;;19.00;99.90;;;;;;5047235;28;20401;-61
2021/10/01 06:36:49;;;;;;;;;;;19.10;99.90;;;;;;5048731;28;19920;-59
2021/10/01 06:39:14;;;;;;;;;;;19.60;99.90;;;;;;5050229;28;19999;-61
2021/10/01 06:41:41;;;;;;;;;;;20.10;99.90;;;;;;5050125;28;19913;-62
2021/10/01 06:44:07;;;;;;;;;;;20.60;99.90;;;;;;5049600;28;20298;-62
2021/10/01 08:19:22;;;;;;;;;;;38.00;1.00;;;;;;5049055;28;19935;-61
2021/10/01 08:21:48;;;;;;;;;;;38.00;1.00;;;;;;5048374;28;20039;-61
2021/10/01 08:24:14;;;;;;;;;;;38.60;1.00;;;;;;5049050;28;19974;-62
2021/10/01 08:26:40;;;;;;;;;;;38.90;1.00;;;;;;5048856;28;19913;-61
2021/10/01 08:29:05;;;;;;;;;;;40.00;1.00;;;;;;5048636;28;19915;-61
2021/10/01 08:31:31;;;;;;;;;;;40.50;1.00;;;;;;5047654;28;19909;-62
2021/10/01 08:33:57;;;;;;;;;;;41.30;1.00;;;;;;5048465;28;20019;-63
2021/10/01 08:36:22;;;;;;;;;;;41.80;1.00;;;;;;5048164;28;19968;-62
2021/10/01 08:38:48;;;;;;;;;;;41.70;1.00;;;;;;5048951;28;19913;-61
2021/10/01 08:41:14;;;;;;;;;;;41.20;1.00;;;;;;5048589;28;20431;-60
2021/10/01 08:43:43;;;;;;;;;;;41.30;1.00;;;;;;5051939;28;19916;-62
2021/10/01 08:46:09;;;;;;;;;;;42.80;1.00;;;;;;5052068;28;20441;-61
2021/10/01 08:48:36;;;;;;;;;;;43.60;1.00;;;;;;5051357;28;20012;-61
2021/10/01 08:51:01;;;;;;;;;;;43.80;1.00;;;;;;5051956;28;19913;-61
2021/10/01 08:53:27;;;;;;;;;;;42.90;1.00;;;;;;5052106;28;19935;-62
2021/10/01 08:55:53;;;;;;;;;;;42.20;1.00;;;;;;5032466;28;19960;-61
2021/10/01 08:58:21;;;;;;;;;;;42.30;1.00;;;;;;5032504;28;19909;-61
2021/10/01 09:00:49;;;;;;;;;;;42.00;1.00;;;;;;5031825;28;19916;-60
2021/10/01 09:03:15;;;;;;;;;;;41.80;1.00;;;;;;5031566;28;19913;-60
2021/10/01 09:05:41;;;;;;;;;;;40.90;1.00;;;;;;5032399;28;19931;-61
2021/10/01 09:08:11;;;;;;;;;;;41.90;1.00;;;;;;5032513;28;19909;-61
2021/10/01 09:10:36;;;;;;;;;;;41.90;1.00;;;;;;5040837;28;20400;-60
2021/10/01 09:13:02;;;;;;;;;;;41.30;1.00;;;;;;5051236;28;20007;-62
2021/10/01 09:15:38;;;;;;;;;;;42.00;1.00;;;;;;5050831;28;19909;-62
2021/10/01 09:18:03;;;;;;;;;;;42.80;1.00;;;;;;5052049;28;19912;-62
2021/10/01 09:20:29;;;;;;;;;;;42.30;1.00;;;;;;5051845;28;19920;-62
2021/10/01 09:23:10;;;;;;;;;;;43.80;1.00;;;;;;5051060;28;19944;-61
2021/10/01 09:25:36;;;;;;;;;;;43.10;1.00;;;;;;5031969;28;20374;-60
2021/10/01 09:28:02;;;;;;;;;;;42.40;1.00;;;;;;5046277;28;19920;-61
2021/10/01 09:30:28;;;;;;;;;;;41.70;1.00;;;;;;5051414;28;20016;-61
2021/10/01 09:33:07;;;;;;;;;;;43.50;1.00;;;;;;5051447;28;20007;-62
2021/10/01 09:35:33;;;;;;;;;;;44.60;1.00;;;;;;5051080;28;19951;-62
2021/10/01 09:38:05;;;;;;;;;;;43.80;1.00;;;;;;5052060;28;19951;-62
2021/10/01 09:40:31;;;;;;;;;;;41.10;1.00;;;;;;5051724;28;19912;-62
2021/10/01 09:42:57;;;;;;;;;;;41.30;1.00;;;;;;5050130;28;20362;-62
2021/10/01 09:45:22;;;;;;;;;;;40.90;1.00;;;;;;5050038;28;20008;-62
2021/10/01 09:47:49;;;;;;;;;;;41.30;1.00;;;;;;5051179;28;19917;-62
2021/10/01 09:50:22;;;;;;;;;;;41.80;1.00;;;;;;5050986;28;19909;-63
2021/10/01 09:52:58;;;;;;;;;;;42.70;1.00;;;;;;5050629;28;20385;-62
2021/10/01 09:55:32;;;;;;;;;;;42.50;1.00;;;;;;5051267;28;19916;-62
2021/10/01 09:58:05;;;;;;;;;;;41.90;1.00;;;;;;5050860;28;19939;-62
2021/10/01 10:00:37;;;;;;;;;;;41.30;1.00;;;;;;5050074;28;19936;-63
2021/10/01 10:03:03;;;;;;;;;;;41.00;1.00;;;;;;5051293;28;19952;-62
2021/10/01 10:05:47;;;;;;;;;;;40.60;1.00;;;;;;5050312;28;20365;-61
2021/10/01 10:08:13;;;;;;;;;;;39.00;1.00;;;;;;5051549;28;19909;-62
2021/10/01 10:10:45;;;;;;;;;;;38.00;1.00;;;;;;5050639;28;20360;-62
2021/10/01 10:13:11;;;;;;;;;;;36.40;1.00;;;;;;5049635;28;20012;-62
2021/10/01 10:15:36;;;;;;;;;;;35.90;1.00;;;;;;5049785;28;20000;-62
2021/10/01 10:18:02;;;;;;;;;;;35.20;1.00;;;;;;5050805;28;19913;-61
2021/10/01 10:20:27;;;;;;;;;;;35.60;1.00;;;;;;5050459;28;19909;-61
2021/10/01 10:22:53;;;;;;;;;;;35.90;1.00;;;;;;5050016;28;19995;-62
2021/10/01 10:25:19;;;;;;;;;;;36.20;1.00;;;;;;5050360;28;19913;-62
2021/10/01 10:27:45;;;;;;;;;;;36.00;1.00;;;;;;5049921;28;20522;-62
2021/10/01 10:30:11;;;;;;;;;;;35.60;1.00;;;;;;5043675;28;20000;-62
2021/10/01 10:32:36;;;;;;;;;;;35.30;1.00;;;;;;5029852;28;19913;-62
2021/10/01 10:35:06;;;;;;;;;;;35.30;1.00;;;;;;5030376;28;19913;-62
2021/10/01 10:37:45;;;;;;;;;;;35.60;1.00;;;;;;5031099;28;19940;-62
2021/10/01 10:40:15;;;;;;;;;;;35.50;1.00;;;;;;5031160;28;19909;-62
2021/10/01 10:42:42;;;;;;;;;;;35.20;1.00;;;;;;5029353;28;20588;-62
2021/10/01 10:45:07;;;;;;;;;;;35.30;1.00;;;;;;5029632;28;19960;-63
2021/10/01 10:47:39;;;;;;;;;;;33.90;1.00;;;;;;5030611;28;19944;-62
2021/10/01 10:50:25;;;;;;;;;;;33.10;1.00;;;;;;5041757;28;19928;-61
2021/10/01 10:53:17;;;;;;;;;;;33.20;1.00;;;;;;5045773;28;19909;-62
2021/10/01 10:55:50;;;;;;;;;;;32.10;1.00;;;;;;5030264;28;19956;-62
2021/10/01 10:58:22;;;;;;;;;;;32.10;1.00;;;;;;5029572;28;19909;-63
2021/10/01 11:00:48;;;;;;;;;;;30.90;1.00;;;;;;5029555;28;20275;-64
2021/10/01 11:03:29;;;;;;;;;;;30.60;1.00;;;;;;5029592;28;20330;-61
2021/10/01 11:06:18;;;;;;;;;;;31.10;1.00;;;;;;5029453;28;19913;-63
2021/10/01 11:08:48;;;;;;;;;;;30.00;1.00;;;;;;5030533;28;20323;-61
2021/10/01 11:11:29;;;;;;;;;;;29.90;1.00;;;;;;5043665;28;19919;-63
2021/10/01 11:14:14;;;;;;;;;;;30.30;1.00;;;;;;5048339;28;19920;-62
2021/10/01 11:16:39;;;;;;;;;;;28.90;1.00;;;;;;5048577;28;20396;-62
2021/10/01 11:19:05;;;;;;;;;;;27.40;1.00;;;;;;5050194;28;19962;-63
2021/10/01 11:21:44;;;;;;;;;;;26.50;1.00;;;;;;5049180;28;20254;-59
2021/10/01 11:24:11;;;;;;;;;;;26.50;1.00;;;;;;5049465;28;19925;-61
2021/10/01 11:26:44;;;;;;;;;;;26.00;1.00;;;;;;5049252;28;19909;-62
2021/10/01 11:29:26;;;;;;;;;;;26.50;1.00;;;;;;5049311;28;19928;-61
2021/10/01 11:31:56;;;;;;;;;;;27.30;1.00;;;;;;5028568;28;19909;-61
2021/10/01 11:34:38;;;;;;;;;;;27.70;1.00;;;;;;5029437;28;19975;-58
2021/10/01 11:37:04;;;;;;;;;;;28.30;1.00;;;;;;5029011;28;19913;-61
2021/10/01 11:39:34;;;;;;;;;;;28.80;1.00;;;;;;5029697;28;19909;-61
2021/10/01 11:42:00;;;;;;;;;;;29.00;1.00;;;;;;5028501;28;20365;-61
2021/10/01 11:44:25;;;;;;;;;;;29.20;1.00;;;;;;5028951;28;19921;-60
2021/10/01 11:46:51;;;;;;;;;;;29.20;1.00;;;;;;5033819;28;19913;-63
2021/10/01 11:49:18;;;;;;;;;;;29.20;1.00;;;;;;5029471;28;20009;-63
2021/10/01 11:52:04;;;;;;;;;;;29.50;1.00;;;;;;5028608;28;20335;-62
2021/10/01 11:54:30;;;;;;;;;;;29.40;1.00;;;;;;5029359;28;19920;-60
2021/10/01 11:56:58;;;;;;;;;;;28.60;1.00;;;;;;5029201;28;19913;-62
2021/10/01 11:59:25;;;;;;;;;;;28.50;1.00;;;;;;5028883;28;19998;-61
2021/10/01 12:01:58;;;;;;;;;;;28.40;1.00;;;;;;5028387;28;20365;-63
2021/10/01 12:04:30;;;;;;;;;;;28.50;1.00;;;;;;5031775;28;19913;-63
2021/10/01 12:07:03;;;;;;;;;;;28.80;1.00;;;;;;5033963;28;19920;-62
2021/10/01 12:09:28;;;;;;;;;;;28.70;1.00;;;;;;5036175;28;20299;-64
2021/10/01 12:11:54;;;;;;;;;;;28.60;1.00;;;;;;5047898;28;19918;-62
2021/10/01 12:14:20;;;;;;;;;;;28.60;1.00;;;;;;5048080;28;19916;-64
2021/10/01 12:16:56;;;;;;;;;;;28.50;1.00;;;;;;5046922;28;19951;-63
2021/10/01 12:19:23;;;;;;;;;;;28.30;1.00;;;;;;5048932;28;19959;-62
2021/10/01 12:21:59;;;;;;;;;;;28.40;1.00;;;;;;5047530;28;19912;-61
2021/10/01 12:24:25;;;;;;;;;;;28.40;1.00;;;;;;5048474;28;20324;-60
2021/10/01 12:26:51;;;;;;;;;;;28.60;1.00;;;;;;5048603;28;19912;-61
2021/10/01 12:29:24;;;;;;;;;;;28.50;1.00;;;;;;5048036;28;19931;-62
2021/10/01 12:31:49;;;;;;;;;;;28.60;1.00;;;;;;5047716;28;19994;-58
2021/10/01 12:34:16;;;;;;;;;;;28.50;1.00;;;;;;5041778;28;20020;-61
2021/10/01 12:36:43;;;;;;;;;;;28.20;1.00;;;;;;5028005;28;20317;-62
2021/10/01 12:39:09;;;;;;;;;;;28.00;1.00;;;;;;5028755;28;19917;-62
2021/10/01 12:41:34;;;;;;;;;;;27.90;1.00;;;;;;5028567;28;19986;-62
2021/10/01 12:44:01;;;;;;;;;;;27.90;1.00;;;;;;5027689;28;20061;-61
2021/10/01 12:46:34;;;;;;;;;;;27.90;4.00;;;;;;5027720;28;19909;-61
2021/10/01 12:49:14;;;;;;;;;;;27.80;1.00;;;;;;5029169;28;19909;-60
2021/10/01 12:51:40;;;;;;;;;;;27.70;1.00;;;;;;5028141;28;19999;-60
2021/10/01 12:54:22;;;;;;;;;;;27.60;1.00;;;;;;5026531;28;20052;-61
2021/10/01 12:57:06;;;;;;;;;;;27.30;1.00;;;;;;5028365;28;19930;-60
2021/10/01 12:59:35;;;;;;;;;;;27.20;1.00;;;;;;5028452;28;20329;-64
2021/10/01 13:02:07;;;;;;;;;;;27.10;1.00;;;;;;5027604;28;19983;-59
2021/10/01 13:04:50;;;;;;;;;;;27.10;1.00;;;;;;5039131;28;19909;-62
2021/10/01 13:07:38;;;;;;;;;;;27.00;2.70;;;;;;5036790;28;19920;-59
2021/10/01 13:10:19;;;;;;;;;;;26.50;1.00;;;;;;5039749;28;20000;-62
2021/10/01 13:12:47;;;;;;;;;;;26.30;1.00;;;;;;5046773;28;20500;-60
2021/10/01 13:15:12;;;;;;;;;;;26.10;1.50;;;;;;5047402;28;19915;-59
2021/10/01 13:17:38;;;;;;;;;;;26.00;2.40;;;;;;5048789;28;20423;-61
2021/10/01 13:20:04;;;;;;;;;;;25.90;2.90;;;;;;5048000;28;20023;-61
2021/10/01 13:22:48;;;;;;;;;;;26.00;4.00;;;;;;5047139;28;20003;-62
2021/10/01 13:25:20;;;;;;;;;;;25.90;4.70;;;;;;5048202;28;19995;-62
2021/10/01 13:27:50;;;;;;;;;;;25.70;5.70;;;;;;5048736;28;20002;-61
2021/10/01 13:30:16;;;;;;;;;;;25.40;5.60;;;;;;5051132;28;20003;-62
2021/10/01 13:32:42;;;;;;;;;;;25.20;6.20;;;;;;5050505;28;19919;-60
2021/10/01 13:35:08;;;;;;;;;;;25.00;16.90;;;;;;5051381;28;19913;-63
2021/10/01 13:37:33;;;;;;;;;;;24.60;7.10;;;;;;5052314;28;19943;-61
2021/10/01 13:39:59;;;;;;;;;;;24.30;8.00;;;;;;5051563;28;19919;-61
2021/10/01 13:42:27;;;;;;;;;;;24.10;8.50;;;;;;5050103;28;20401;-61
2021/10/01 13:44:52;;;;;;;;;;;23.70;9.60;;;;;;5050393;28;20291;-63
2021/10/01 13:47:18;;;;;;;;;;;23.60;11.10;;;;;;5051612;28;19931;-64
2021/10/01 13:49:43;;;;;;;;;;;23.30;11.70;;;;;;5051518;28;20223;-64
2021/10/01 13:52:09;;;;;;;;;;;23.10;12.10;;;;;;5050440;28;19909;-60
2021/10/01 13:54:34;;;;;;;;;;;22.90;13.10;;;;;;5051647;28;19953;-62
2021/10/01 13:57:00;;;;;;;;;;;22.70;14.20;;;;;;5051242;28;20032;-63
2021/10/01 13:59:25;;;;;;;;;;;22.40;15.40;;;;;;5051099;28;19935;-61
2021/10/01 14:01:51;;;;;;;;;;;22.30;17.00;;;;;;5050451;28;19909;-58
2021/10/01 14:04:16;;;;;;;;;;;22.40;19.00;;;;;;5051262;28;19909;-62
2021/10/01 14:06:42;;;;;;;;;;;22.40;20.20;;;;;;5051239;28;19909;-61
2021/10/01 14:09:07;;;;;;;;;;;22.40;21.30;;;;;;5051592;28;19944;-59
2021/10/01 14:11:33;;;;;;;;;;;22.40;22.60;;;;;;5051578;28;19909;-61
2021/10/01 14:13:59;;;;;;;;;;;22.50;24.00;;;;;;5050046;28;19940;-59
2021/10/01 14:16:24;;;;;;;;;;;22.40;24.90;;;;;;5050055;28;19909;-61
2021/10/01 14:18:50;;;;;;;;;;;22.40;26.40;;;;;;5050855;28;19919;-60
2021/10/01 14:21:15;;;;;;;;;;;22.40;27.70;;;;;;5050244;28;20332;-60
2021/10/01 14:23:41;;;;;;;;;;;22.40;28.50;;;;;;5050026;28;20062;-60
2021/10/01 14:26:07;;;;;;;;;;;22.40;29.30;;;;;;5050953;28;19916;-62
2021/10/01 14:28:32;;;;;;;;;;;22.40;30.10;;;;;;5043587;28;19916;-60
2021/10/01 14:30:58;;;;;;;;;;;22.30;31.50;;;;;;5037607;28;19923;-61
2021/10/01 14:33:23;;;;;;;;;;;22.20;32.00;;;;;;5028253;28;19913;-63
2021/10/01 14:35:49;;;;;;;;;;;22.20;34.00;;;;;;5030431;28;20024;-60
2021/10/01 14:38:14;;;;;;;;;;;22.10;34.90;;;;;;5031032;28;19909;-61
2021/10/01 14:40:41;;;;;;;;;;;21.90;36.50;;;;;;5029696;28;20346;-60
2021/10/01 14:43:06;;;;;;;;;;;21.90;37.70;;;;;;5028863;28;19943;-60
2021/10/01 14:45:32;;;;;;;;;;;21.90;39.90;;;;;;5029564;28;20216;-61
2021/10/01 14:47:57;;;;;;;;;;;21.80;40.50;;;;;;5030095;28;19909;-60
2021/10/01 14:50:23;;;;;;;;;;;21.80;41.40;;;;;;5031251;28;19941;-63
2021/10/01 14:52:49;;;;;;;;;;;21.80;43.80;;;;;;5040768;28;19912;-62
2021/10/01 14:55:15;;;;;;;;;;;21.80;44.80;;;;;;5049327;28;20000;-60
2021/10/01 14:57:41;;;;;;;;;;;21.70;46.00;;;;;;5049085;28;20031;-60
2021/10/01 15:00:08;;;;;;;;;;;21.70;46.60;;;;;;5048415;28;19917;-62
2021/10/01 15:02:33;;;;;;;;;;;21.70;47.70;;;;;;5048094;28;19913;-60
2021/10/01 15:04:59;;;;;;;;;;;21.60;49.60;;;;;;5048463;28;20327;-60
2021/10/01 15:07:25;;;;;;;;;;;21.70;50.20;;;;;;5049107;28;19909;-60
2021/10/01 15:09:50;;;;;;;;;;;21.70;51.30;;;;;;5044477;28;19956;-62
2021/10/01 15:12:16;;;;;;;;;;;21.70;52.50;;;;;;5038805;28;20075;-61
2021/10/01 15:14:41;;;;;;;;;;;21.70;54.00;;;;;;5029160;28;19913;-61
2021/10/01 15:17:07;;;;;;;;;;;21.60;54.90;;;;;;5029739;28;19913;-60
2021/10/01 15:19:32;;;;;;;;;;;21.60;55.40;;;;;;5029862;28;19909;-60
2021/10/01 15:21:58;;;;;;;;;;;21.50;56.60;;;;;;5028530;28;19920;-61
2021/10/01 15:24:24;;;;;;;;;;;21.50;57.80;;;;;;5039820;28;19909;-60
2021/10/01 15:26:49;;;;;;;;;;;21.50;58.70;;;;;;5047685;28;19916;-63
2021/10/01 15:29:15;;;;;;;;;;;21.50;59.60;;;;;;5044427;28;19916;-60
2021/10/01 15:31:40;;;;;;;;;;;21.50;60.70;;;;;;5029784;28;19920;-62
2021/10/01 15:34:06;;;;;;;;;;;21.50;62.80;;;;;;5028856;28;20000;-58
2021/10/01 15:36:32;;;;;;;;;;;21.40;64.10;;;;;;5029143;28;20003;-63
2021/10/01 15:38:57;;;;;;;;;;;21.40;66.30;;;;;;5029630;28;19953;-63
2021/10/01 15:41:23;;;;;;;;;;;21.30;68.00;;;;;;5029210;28;20019;-57
2021/10/01 15:43:49;;;;;;;;;;;21.20;69.30;;;;;;5028041;28;19913;-59
2021/10/01 15:46:14;;;;;;;;;;;21.10;70.10;;;;;;5028531;28;19913;-60
2021/10/01 15:48:40;;;;;;;;;;;21.00;72.80;;;;;;5029612;28;20027;-62
2021/10/01 15:51:05;;;;;;;;;;;21.00;75.00;;;;;;5028559;28;19921;-61
2021/10/01 15:53:31;;;;;;;;;;;21.00;78.10;;;;;;5028591;28;20489;-62
2021/10/01 15:55:57;;;;;;;;;;;20.90;78.90;;;;;;5028811;28;20346;-64
2021/10/01 15:58:22;;;;;;;;;;;20.90;79.50;;;;;;5028855;28;19959;-61
2021/10/01 16:00:48;;;;;;;;;;;20.80;81.70;;;;;;5028173;28;19917;-63
2021/10/01 16:03:14;;;;;;;;;;;20.80;83.20;;;;;;5028297;28;19917;-60
2021/10/01 16:05:40;;;;;;;;;;;20.80;84.90;;;;;;5048622;28;19923;-59
2021/10/01 16:08:10;;;;;;;;;;;20.70;86.10;;;;;;5048839;28;20001;-60